sensor_id;sensor_type;location;lat;lon;timestamp;P1;durP1;ratioP1;P2;durP2;ratioP2
62509;SDS011;48558;48.242;11.654;2022-09-19T00:01:38;0.80;;;0.80;;
62509;SDS011;48558;48.242;11.654;2022-09-19T00:05:53;0.50;;;0.50;;
62509;SDS011;48558;48.242;11.654;2022-09-19T00:10:06;0.52;;;0.52;;
62509;SDS011;48558;48.242;11.654;2022-09-19T00:14:21;0.77;;;0.77;;
62509;SDS011;48558;48.242;11.654;2022-09-19T00:18:37;1.00;;;0.95;;
62509;SDS011;48558;48.242;11.654;2022-09-19T00:22:52;2.40;;;0.80;;
62509;SDS011;48558;48.242;11.654;2022-09-19T00:27:24;1.00;;;0.90;;
62509;SDS011;48558;48.242;11.654;2022-09-19T00:31:38;1.45;;;0.95;;
62509;SDS011;48558;48.242;11.654;2022-09-19T00:35:52;0.90;;;0.90;;
62509;SDS011;48558;48.242;11.654;2022-09-19T00:40:07;1.60;;;1.00;;
62509;SDS011;48558;48.242;11.654;2022-09-19T00:48:34;1.13;;;0.65;;
62509;SDS011;48558;48.242;11.654;2022-09-19T00:52:53;0.43;;;0.43;;
62509;SDS011;48558;48.242;11.654;2022-09-19T00:57:12;0.32;;;0.32;;
62509;SDS011;48558;48.242;11.654;2022-09-19T01:01:27;0.80;;;0.77;;
62509;SDS011;48558;48.242;11.654;2022-09-19T01:05:49;0.40;;;0.40;;
62509;SDS011;48558;48.242;11.654;2022-09-19T01:33:03;0.38;;;0.20;;
62509;SDS011;48558;48.242;11.654;2022-09-19T01:37:42;0.20;;;0.20;;
62509;SDS011;48558;48.242;11.654;2022-09-19T01:42:00;0.10;;;0.10;;
62509;SDS011;48558;48.242;11.654;2022-09-19T01:46:16;0.10;;;0.10;;
62509;SDS011;48558;48.242;11.654;2022-09-19T01:55:20;0.10;;;0.10;;
62509;SDS011;48558;48.242;11.654;2022-09-19T02:04:12;0.17;;;0.17;;
62509;SDS011;48558;48.242;11.654;2022-09-19T02:08:34;0.05;;;0.05;;
62509;SDS011;48558;48.242;11.654;2022-09-19T02:12:55;0.13;;;0.13;;
62509;SDS011;48558;48.242;11.654;2022-09-19T02:17:13;0.10;;;0.10;;
62509;SDS011;48558;48.242;11.654;2022-09-19T02:21:33;0.10;;;0.10;;
62509;SDS011;48558;48.242;11.654;2022-09-19T02:25:51;0.20;;;0.20;;
62509;SDS011;48558;48.242;11.654;2022-09-19T02:30:07;0.20;;;0.20;;
62509;SDS011;48558;48.242;11.654;2022-09-19T02:34:23;0.38;;;0.30;;
62509;SDS011;48558;48.242;11.654;2022-09-19T02:38:39;0.65;;;0.22;;
62509;SDS011;48558;48.242;11.654;2022-09-19T02:43:16;0.00;;;0.00;;
62509;SDS011;48558;48.242;11.654;2022-09-19T02:47:52;0.17;;;0.17;;
62509;SDS011;48558;48.242;11.654;2022-09-19T02:52:20;0.05;;;0.05;;
62509;SDS011;48558;48.242;11.654;2022-09-19T02:56:41;0.65;;;0.65;;
62509;SDS011;48558;48.242;11.654;2022-09-19T03:01:40;0.52;;;0.43;;
62509;SDS011;48558;48.242;11.654;2022-09-19T03:05:37;0.20;;;0.20;;
62509;SDS011;48558;48.242;11.654;2022-09-19T03:09:57;0.20;;;0.20;;
62509;SDS011;48558;48.242;11.654;2022-09-19T03:14:21;0.40;;;0.28;;
62509;SDS011;48558;48.242;11.654;2022-09-19T03:18:35;0.30;;;0.30;;
62509;SDS011;48558;48.242;11.654;2022-09-19T03:22:51;0.22;;;0.22;;
62509;SDS011;48558;48.242;11.654;2022-09-19T03:27:06;1.02;;;0.25;;
62509;SDS011;48558;48.242;11.654;2022-09-19T03:31:20;0.32;;;0.32;;
62509;SDS011;48558;48.242;11.654;2022-09-19T03:35:34;0.40;;;0.40;;
62509;SDS011;48558;48.242;11.654;2022-09-19T03:39:49;0.22;;;0.22;;
62509;SDS011;48558;48.242;11.654;2022-09-19T03:44:02;0.35;;;0.35;;
62509;SDS011;48558;48.242;11.654;2022-09-19T03:48:16;0.35;;;0.35;;
62509;SDS011;48558;48.242;11.654;2022-09-19T03:52:29;1.75;;;0.63;;
62509;SDS011;48558;48.242;11.654;2022-09-19T03:56:42;0.50;;;0.40;;
62509;SDS011;48558;48.242;11.654;2022-09-19T04:00:56;0.85;;;0.50;;
62509;SDS011;48558;48.242;11.654;2022-09-19T04:05:10;1.17;;;0.80;;
62509;SDS011;48558;48.242;11.654;2022-09-19T04:09:25;6.22;;;0.50;;
62509;SDS011;48558;48.242;11.654;2022-09-19T04:13:39;2.15;;;0.45;;
62509;SDS011;48558;48.242;11.654;2022-09-19T04:17:52;1.65;;;0.65;;
62509;SDS011;48558;48.242;11.654;2022-09-19T04:22:05;0.38;;;0.38;;
62509;SDS011;48558;48.242;11.654;2022-09-19T04:26:19;2.70;;;0.40;;
62509;SDS011;48558;48.242;11.654;2022-09-19T04:30:34;1.50;;;0.57;;
62509;SDS011;48558;48.242;11.654;2022-09-19T04:34:48;1.65;;;0.55;;
62509;SDS011;48558;48.242;11.654;2022-09-19T04:39:02;0.77;;;0.50;;
62509;SDS011;48558;48.242;11.654;2022-09-19T04:43:16;1.45;;;0.60;;
62509;SDS011;48558;48.242;11.654;2022-09-19T04:47:31;0.43;;;0.43;;
62509;SDS011;48558;48.242;11.654;2022-09-19T04:51:45;0.65;;;0.50;;
62509;SDS011;48558;48.242;11.654;2022-09-19T04:55:58;3.28;;;0.50;;
62509;SDS011;48558;48.242;11.654;2022-09-19T05:00:12;5.90;;;0.70;;
62509;SDS011;48558;48.242;11.654;2022-09-19T05:04:25;5.47;;;0.50;;
62509;SDS011;48558;48.242;11.654;2022-09-19T05:08:38;5.65;;;1.02;;
62509;SDS011;48558;48.242;11.654;2022-09-19T05:12:53;0.57;;;0.57;;
62509;SDS011;48558;48.242;11.654;2022-09-19T05:17:08;0.90;;;0.45;;
62509;SDS011;48558;48.242;11.654;2022-09-19T05:21:21;2.03;;;0.35;;
62509;SDS011;48558;48.242;11.654;2022-09-19T05:25:37;3.00;;;0.88;;
62509;SDS011;48558;48.242;11.654;2022-09-19T05:29:53;1.08;;;0.70;;
62509;SDS011;48558;48.242;11.654;2022-09-19T05:34:08;5.20;;;0.80;;
62509;SDS011;48558;48.242;11.654;2022-09-19T05:38:24;7.93;;;0.43;;
62509;SDS011;48558;48.242;11.654;2022-09-19T05:42:41;1.95;;;0.55;;
62509;SDS011;48558;48.242;11.654;2022-09-19T05:46:57;0.40;;;0.40;;
62509;SDS011;48558;48.242;11.654;2022-09-19T05:51:10;2.78;;;0.50;;
62509;SDS011;48558;48.242;11.654;2022-09-19T05:55:24;2.85;;;0.70;;
62509;SDS011;48558;48.242;11.654;2022-09-19T05:59:38;0.40;;;0.40;;
62509;SDS011;48558;48.242;11.654;2022-09-19T06:03:52;2.45;;;0.75;;
62509;SDS011;48558;48.242;11.654;2022-09-19T06:08:07;2.65;;;0.80;;
62509;SDS011;48558;48.242;11.654;2022-09-19T06:12:21;1.42;;;0.45;;
62509;SDS011;48558;48.242;11.654;2022-09-19T06:16:34;1.50;;;0.70;;
62509;SDS011;48558;48.242;11.654;2022-09-19T06:20:53;1.27;;;0.33;;
62509;SDS011;48558;48.242;11.654;2022-09-19T06:25:09;1.88;;;0.80;;
62509;SDS011;48558;48.242;11.654;2022-09-19T06:29:22;0.60;;;0.43;;
62509;SDS011;48558;48.242;11.654;2022-09-19T06:33:36;1.75;;;0.77;;
62509;SDS011;48558;48.242;11.654;2022-09-19T06:37:56;2.03;;;0.68;;
62509;SDS011;48558;48.242;11.654;2022-09-19T06:42:13;5.75;;;0.88;;
62509;SDS011;48558;48.242;11.654;2022-09-19T06:46:26;3.53;;;0.93;;
62509;SDS011;48558;48.242;11.654;2022-09-19T06:50:43;3.53;;;0.80;;
62509;SDS011;48558;48.242;11.654;2022-09-19T06:54:58;0.85;;;0.50;;
62509;SDS011;48558;48.242;11.654;2022-09-19T06:59:11;4.63;;;1.10;;
62509;SDS011;48558;48.242;11.654;2022-09-19T07:03:25;8.77;;;0.95;;
62509;SDS011;48558;48.242;11.654;2022-09-19T07:07:38;3.22;;;1.00;;
62509;SDS011;48558;48.242;11.654;2022-09-19T07:11:53;3.60;;;0.80;;
62509;SDS011;48558;48.242;11.654;2022-09-19T07:16:09;5.22;;;1.40;;
62509;SDS011;48558;48.242;11.654;2022-09-19T07:20:24;10.50;;;1.00;;
62509;SDS011;48558;48.242;11.654;2022-09-19T07:24:38;2.28;;;1.02;;
62509;SDS011;48558;48.242;11.654;2022-09-19T07:28:51;4.45;;;0.80;;
62509;SDS011;48558;48.242;11.654;2022-09-19T07:33:09;5.00;;;0.90;;
62509;SDS011;48558;48.242;11.654;2022-09-19T07:37:23;2.25;;;0.75;;
62509;SDS011;48558;48.242;11.654;2022-09-19T07:41:40;4.03;;;1.35;;
62509;SDS011;48558;48.242;11.654;2022-09-19T07:45:53;2.22;;;0.80;;
62509;SDS011;48558;48.242;11.654;2022-09-19T07:50:06;2.88;;;0.90;;
62509;SDS011;48558;48.242;11.654;2022-09-19T07:54:20;3.17;;;0.90;;
62509;SDS011;48558;48.242;11.654;2022-09-19T07:58:33;1.98;;;1.35;;
62509;SDS011;48558;48.242;11.654;2022-09-19T08:02:57;3.28;;;1.30;;
62509;SDS011;48558;48.242;11.654;2022-09-19T08:07:14;1.38;;;0.65;;
62509;SDS011;48558;48.242;11.654;2022-09-19T08:11:27;3.25;;;1.17;;
62509;SDS011;48558;48.242;11.654;2022-09-19T08:15:40;4.70;;;1.30;;
62509;SDS011;48558;48.242;11.654;2022-09-19T08:19:55;3.65;;;1.15;;
62509;SDS011;48558;48.242;11.654;2022-09-19T08:24:09;4.50;;;1.00;;
62509;SDS011;48558;48.242;11.654;2022-09-19T08:28:22;3.47;;;1.00;;
62509;SDS011;48558;48.242;11.654;2022-09-19T08:32:36;5.10;;;1.30;;
62509;SDS011;48558;48.242;11.654;2022-09-19T08:36:49;4.57;;;1.23;;
62509;SDS011;48558;48.242;11.654;2022-09-19T08:41:08;2.47;;;1.00;;
62509;SDS011;48558;48.242;11.654;2022-09-19T08:50:24;1.58;;;0.70;;
62509;SDS011;48558;48.242;11.654;2022-09-19T08:54:39;0.93;;;0.77;;
62509;SDS011;48558;48.242;11.654;2022-09-19T08:58:58;1.90;;;0.85;;
62509;SDS011;48558;48.242;11.654;2022-09-19T09:03:15;3.57;;;1.20;;
62509;SDS011;48558;48.242;11.654;2022-09-19T09:12:17;5.85;;;1.00;;
62509;SDS011;48558;48.242;11.654;2022-09-19T09:21:47;1.77;;;0.88;;
62509;SDS011;48558;48.242;11.654;2022-09-19T09:26:18;3.47;;;1.00;;
62509;SDS011;48558;48.242;11.654;2022-09-19T09:30:35;2.37;;;0.87;;
62509;SDS011;48558;48.242;11.654;2022-09-19T09:34:55;1.48;;;0.90;;
62509;SDS011;48558;48.242;11.654;2022-09-19T09:39:20;5.65;;;1.08;;
62509;SDS011;48558;48.242;11.654;2022-09-19T09:48:32;0.95;;;0.80;;
62509;SDS011;48558;48.242;11.654;2022-09-19T09:52:58;3.22;;;1.00;;
62509;SDS011;48558;48.242;11.654;2022-09-19T09:57:31;1.47;;;0.63;;
62509;SDS011;48558;48.242;11.654;2022-09-19T10:01:57;1.27;;;0.90;;
62509;SDS011;48558;48.242;11.654;2022-09-19T10:06:42;5.30;;;0.93;;
62509;SDS011;48558;48.242;11.654;2022-09-19T10:11:03;0.60;;;0.60;;
62509;SDS011;48558;48.242;11.654;2022-09-19T10:15:44;1.95;;;1.00;;
62509;SDS011;48558;48.242;11.654;2022-09-19T10:20:07;0.88;;;0.63;;
62509;SDS011;48558;48.242;11.654;2022-09-19T10:28:55;2.63;;;1.00;;
62509;SDS011;48558;48.242;11.654;2022-09-19T10:33:16;4.00;;;1.60;;
62509;SDS011;48558;48.242;11.654;2022-09-19T10:37:39;1.10;;;0.90;;
62509;SDS011;48558;48.242;11.654;2022-09-19T10:41:53;3.85;;;1.45;;
62509;SDS011;48558;48.242;11.654;2022-09-19T10:46:06;1.85;;;1.45;;
62509;SDS011;48558;48.242;11.654;2022-09-19T10:50:27;3.83;;;1.45;;
62509;SDS011;48558;48.242;11.654;2022-09-19T10:54:42;3.25;;;1.20;;
62509;SDS011;48558;48.242;11.654;2022-09-19T10:59:04;1.33;;;1.08;;
62509;SDS011;48558;48.242;11.654;2022-09-19T11:03:26;3.42;;;1.10;;
62509;SDS011;48558;48.242;11.654;2022-09-19T11:07:47;3.28;;;1.25;;
62509;SDS011;48558;48.242;11.654;2022-09-19T11:12:03;5.72;;;1.38;;
62509;SDS011;48558;48.242;11.654;2022-09-19T11:16:19;1.75;;;1.00;;
62509;SDS011;48558;48.242;11.654;2022-09-19T11:29:36;1.58;;;0.90;;
62509;SDS011;48558;48.242;11.654;2022-09-19T11:34:16;4.30;;;1.52;;
62509;SDS011;48558;48.242;11.654;2022-09-19T11:39:17;3.30;;;1.20;;
62509;SDS011;48558;48.242;11.654;2022-09-19T11:44:21;4.90;;;1.10;;
62509;SDS011;48558;48.242;11.654;2022-09-19T11:58:26;3.65;;;2.08;;
62509;SDS011;48558;48.242;11.654;2022-09-19T12:12:16;3.70;;;0.98;;
62509;SDS011;48558;48.242;11.654;2022-09-19T12:16:35;3.72;;;1.25;;
62509;SDS011;48558;48.242;11.654;2022-09-19T12:20:54;1.50;;;0.80;;
62509;SDS011;48558;48.242;11.654;2022-09-19T12:25:15;0.65;;;0.65;;
62509;SDS011;48558;48.242;11.654;2022-09-19T12:29:34;2.63;;;0.82;;
62509;SDS011;48558;48.242;11.654;2022-09-19T12:33:57;1.20;;;0.70;;
62509;SDS011;48558;48.242;11.654;2022-09-19T12:38:32;1.27;;;0.63;;
62509;SDS011;48558;48.242;11.654;2022-09-19T12:51:58;3.75;;;1.13;;
62509;SDS011;48558;48.242;11.654;2022-09-19T12:56:48;1.48;;;0.80;;
62509;SDS011;48558;48.242;11.654;2022-09-19T13:01:24;1.85;;;0.90;;
62509;SDS011;48558;48.242;11.654;2022-09-19T13:05:54;2.50;;;1.27;;
62509;SDS011;48558;48.242;11.654;2022-09-19T13:10:29;2.60;;;1.00;;
62509;SDS011;48558;48.242;11.654;2022-09-19T13:14:51;3.38;;;1.23;;
62509;SDS011;48558;48.242;11.654;2022-09-19T13:23:43;2.42;;;1.15;;
62509;SDS011;48558;48.242;11.654;2022-09-19T13:32:47;0.70;;;0.70;;
62509;SDS011;48558;48.242;11.654;2022-09-19T13:41:55;2.28;;;1.17;;
62509;SDS011;48558;48.242;11.654;2022-09-19T13:46:15;0.85;;;0.80;;
62509;SDS011;48558;48.242;11.654;2022-09-19T13:55:52;2.08;;;0.75;;
62509;SDS011;48558;48.242;11.654;2022-09-19T14:04:00;2.67;;;0.98;;
62509;SDS011;48558;48.242;11.654;2022-09-19T14:08:33;0.55;;;0.55;;
62509;SDS011;48558;48.242;11.654;2022-09-19T14:17:39;6.30;;;1.60;;
62509;SDS011;48558;48.242;11.654;2022-09-19T14:21:55;0.98;;;0.77;;
62509;SDS011;48558;48.242;11.654;2022-09-19T14:44:47;0.95;;;0.60;;
62509;SDS011;48558;48.242;11.654;2022-09-19T14:49:18;2.70;;;0.90;;
62509;SDS011;48558;48.242;11.654;2022-09-19T14:53:40;2.00;;;0.90;;
62509;SDS011;48558;48.242;11.654;2022-09-19T14:57:54;0.60;;;0.60;;
62509;SDS011;48558;48.242;11.654;2022-09-19T15:06:45;5.57;;;1.33;;
62509;SDS011;48558;48.242;11.654;2022-09-19T15:11:04;0.70;;;0.70;;
62509;SDS011;48558;48.242;11.654;2022-09-19T15:15:22;1.80;;;0.40;;
62509;SDS011;48558;48.242;11.654;2022-09-19T15:19:42;1.05;;;0.65;;
62509;SDS011;48558;48.242;11.654;2022-09-19T15:23:57;1.42;;;0.77;;
62509;SDS011;48558;48.242;11.654;2022-09-19T15:28:23;2.50;;;0.80;;
62509;SDS011;48558;48.242;11.654;2022-09-19T15:32:39;1.00;;;0.70;;
62509;SDS011;48558;48.242;11.654;2022-09-19T15:36:53;0.63;;;0.60;;
62509;SDS011;48558;48.242;11.654;2022-09-19T15:41:08;3.20;;;0.90;;
62509;SDS011;48558;48.242;11.654;2022-09-19T15:49:43;0.88;;;0.50;;
62509;SDS011;48558;48.242;11.654;2022-09-19T15:54:02;0.40;;;0.40;;
62509;SDS011;48558;48.242;11.654;2022-09-19T15:58:29;1.60;;;0.63;;
62509;SDS011;48558;48.242;11.654;2022-09-19T16:02:48;0.95;;;0.60;;
62509;SDS011;48558;48.242;11.654;2022-09-19T16:07:25;0.80;;;0.63;;
62509;SDS011;48558;48.242;11.654;2022-09-19T16:11:58;0.65;;;0.52;;
62509;SDS011;48558;48.242;11.654;2022-09-19T16:16:28;0.52;;;0.52;;
62509;SDS011;48558;48.242;11.654;2022-09-19T16:20:48;0.75;;;0.75;;
62509;SDS011;48558;48.242;11.654;2022-09-19T16:25:10;0.93;;;0.50;;
62509;SDS011;48558;48.242;11.654;2022-09-19T16:29:26;0.90;;;0.57;;
62509;SDS011;48558;48.242;11.654;2022-09-19T16:33:43;4.65;;;0.88;;
62509;SDS011;48558;48.242;11.654;2022-09-19T16:38:17;1.10;;;0.60;;
62509;SDS011;48558;48.242;11.654;2022-09-19T16:42:36;0.50;;;0.50;;
62509;SDS011;48558;48.242;11.654;2022-09-19T16:46:49;0.60;;;0.60;;
62509;SDS011;48558;48.242;11.654;2022-09-19T16:51:14;1.90;;;0.80;;
62509;SDS011;48558;48.242;11.654;2022-09-19T16:55:37;0.70;;;0.70;;
62509;SDS011;48558;48.242;11.654;2022-09-19T16:59:53;1.02;;;0.80;;
62509;SDS011;48558;48.242;11.654;2022-09-19T17:04:14;0.93;;;0.90;;
62509;SDS011;48558;48.242;11.654;2022-09-19T17:08:29;0.90;;;0.63;;
62509;SDS011;48558;48.242;11.654;2022-09-19T17:12:42;2.72;;;0.77;;
62509;SDS011;48558;48.242;11.654;2022-09-19T17:16:56;1.80;;;0.77;;
62509;SDS011;48558;48.242;11.654;2022-09-19T17:21:10;1.20;;;1.10;;
62509;SDS011;48558;48.242;11.654;2022-09-19T17:25:37;2.58;;;1.38;;
62509;SDS011;48558;48.242;11.654;2022-09-19T17:29:54;1.60;;;0.98;;
62509;SDS011;48558;48.242;11.654;2022-09-19T17:34:08;1.23;;;0.90;;
62509;SDS011;48558;48.242;11.654;2022-09-19T17:38:24;1.40;;;0.95;;
62509;SDS011;48558;48.242;11.654;2022-09-19T17:42:38;0.80;;;0.80;;
62509;SDS011;48558;48.242;11.654;2022-09-19T17:46:53;3.45;;;1.33;;
62509;SDS011;48558;48.242;11.654;2022-09-19T17:55:20;0.95;;;0.70;;
62509;SDS011;48558;48.242;11.654;2022-09-19T17:59:33;1.10;;;0.98;;
62509;SDS011;48558;48.242;11.654;2022-09-19T18:03:46;1.50;;;1.15;;
62509;SDS011;48558;48.242;11.654;2022-09-19T18:08:00;1.80;;;1.30;;
62509;SDS011;48558;48.242;11.654;2022-09-19T18:12:14;1.00;;;1.00;;
62509;SDS011;48558;48.242;11.654;2022-09-19T18:16:29;1.40;;;1.13;;
62509;SDS011;48558;48.242;11.654;2022-09-19T18:20:51;2.55;;;1.60;;
62509;SDS011;48558;48.242;11.654;2022-09-19T18:25:09;6.40;;;2.42;;
62509;SDS011;48558;48.242;11.654;2022-09-19T18:29:30;4.32;;;2.58;;
62509;SDS011;48558;48.242;11.654;2022-09-19T18:33:44;4.78;;;2.78;;
62509;SDS011;48558;48.242;11.654;2022-09-19T18:37:57;3.55;;;2.28;;
62509;SDS011;48558;48.242;11.654;2022-09-19T18:42:11;11.77;;;4.65;;
62509;SDS011;48558;48.242;11.654;2022-09-19T18:46:24;8.07;;;4.38;;
62509;SDS011;48558;48.242;11.654;2022-09-19T18:50:38;7.60;;;3.17;;
62509;SDS011;48558;48.242;11.654;2022-09-19T18:54:51;7.70;;;2.13;;
62509;SDS011;48558;48.242;11.654;2022-09-19T18:59:05;1.52;;;1.05;;
62509;SDS011;48558;48.242;11.654;2022-09-19T19:03:18;1.10;;;0.98;;
62509;SDS011;48558;48.242;11.654;2022-09-19T19:07:31;1.35;;;1.00;;
62509;SDS011;48558;48.242;11.654;2022-09-19T19:11:47;0.98;;;0.88;;
62509;SDS011;48558;48.242;11.654;2022-09-19T19:16:02;1.00;;;0.90;;
62509;SDS011;48558;48.242;11.654;2022-09-19T19:20:18;3.45;;;1.13;;
62509;SDS011;48558;48.242;11.654;2022-09-19T19:24:31;1.38;;;1.00;;
62509;SDS011;48558;48.242;11.654;2022-09-19T19:28:44;1.52;;;1.05;;
62509;SDS011;48558;48.242;11.654;2022-09-19T19:32:58;0.80;;;0.80;;
62509;SDS011;48558;48.242;11.654;2022-09-19T19:37:11;2.58;;;0.93;;
62509;SDS011;48558;48.242;11.654;2022-09-19T19:41:25;3.33;;;1.40;;
62509;SDS011;48558;48.242;11.654;2022-09-19T19:45:40;0.80;;;0.80;;
62509;SDS011;48558;48.242;11.654;2022-09-19T19:49:53;1.73;;;0.85;;
62509;SDS011;48558;48.242;11.654;2022-09-19T19:54:13;3.08;;;1.50;;
62509;SDS011;48558;48.242;11.654;2022-09-19T19:58:26;6.47;;;2.70;;
62509;SDS011;48558;48.242;11.654;2022-09-19T20:02:40;2.63;;;1.80;;
62509;SDS011;48558;48.242;11.654;2022-09-19T20:06:53;3.00;;;1.77;;
62509;SDS011;48558;48.242;11.654;2022-09-19T20:11:09;2.30;;;1.60;;
62509;SDS011;48558;48.242;11.654;2022-09-19T20:15:25;1.45;;;1.30;;
62509;SDS011;48558;48.242;11.654;2022-09-19T20:19:38;2.58;;;1.50;;
62509;SDS011;48558;48.242;11.654;2022-09-19T20:23:52;2.10;;;1.52;;
62509;SDS011;48558;48.242;11.654;2022-09-19T20:28:07;1.35;;;1.20;;
62509;SDS011;48558;48.242;11.654;2022-09-19T20:32:20;1.42;;;1.25;;
62509;SDS011;48558;48.242;11.654;2022-09-19T20:36:35;2.05;;;1.50;;
62509;SDS011;48558;48.242;11.654;2022-09-19T20:40:55;3.75;;;1.38;;
62509;SDS011;48558;48.242;11.654;2022-09-19T20:45:10;1.27;;;1.08;;
62509;SDS011;48558;48.242;11.654;2022-09-19T20:49:23;1.00;;;0.90;;
62509;SDS011;48558;48.242;11.654;2022-09-19T20:53:39;1.08;;;0.98;;
62509;SDS011;48558;48.242;11.654;2022-09-19T20:57:52;0.95;;;0.95;;
62509;SDS011;48558;48.242;11.654;2022-09-19T21:02:05;1.55;;;0.90;;
62509;SDS011;48558;48.242;11.654;2022-09-19T21:06:18;1.33;;;1.00;;
62509;SDS011;48558;48.242;11.654;2022-09-19T21:10:32;0.63;;;0.63;;
62509;SDS011;48558;48.242;11.654;2022-09-19T21:14:49;1.02;;;0.75;;
62509;SDS011;48558;48.242;11.654;2022-09-19T21:19:02;1.45;;;1.10;;
62509;SDS011;48558;48.242;11.654;2022-09-19T21:23:15;0.80;;;0.80;;
62509;SDS011;48558;48.242;11.654;2022-09-19T21:27:28;1.05;;;1.05;;
62509;SDS011;48558;48.242;11.654;2022-09-19T21:31:41;3.22;;;1.50;;
62509;SDS011;48558;48.242;11.654;2022-09-19T21:35:59;1.80;;;1.13;;
62509;SDS011;48558;48.242;11.654;2022-09-19T21:40:13;1.63;;;1.15;;
62509;SDS011;48558;48.242;11.654;2022-09-19T21:44:28;0.75;;;0.75;;
62509;SDS011;48558;48.242;11.654;2022-09-19T21:48:41;0.98;;;0.85;;
62509;SDS011;48558;48.242;11.654;2022-09-19T21:52:56;2.83;;;1.00;;
62509;SDS011;48558;48.242;11.654;2022-09-19T21:57:09;0.60;;;0.60;;
62509;SDS011;48558;48.242;11.654;2022-09-19T22:01:26;0.85;;;0.85;;
62509;SDS011;48558;48.242;11.654;2022-09-19T22:05:41;1.35;;;0.85;;
62509;SDS011;48558;48.242;11.654;2022-09-19T22:09:54;0.50;;;0.50;;
62509;SDS011;48558;48.242;11.654;2022-09-19T22:14:07;1.15;;;0.50;;
62509;SDS011;48558;48.242;11.654;2022-09-19T22:18:20;0.85;;;0.55;;
62509;SDS011;48558;48.242;11.654;2022-09-19T22:22:34;0.43;;;0.43;;
62509;SDS011;48558;48.242;11.654;2022-09-19T22:26:48;0.43;;;0.43;;
62509;SDS011;48558;48.242;11.654;2022-09-19T22:31:02;0.50;;;0.50;;
62509;SDS011;48558;48.242;11.654;2022-09-19T22:35:17;1.35;;;0.57;;
62509;SDS011;48558;48.242;11.654;2022-09-19T22:39:30;3.00;;;0.80;;
62509;SDS011;48558;48.242;11.654;2022-09-19T22:43:43;0.47;;;0.47;;
62509;SDS011;48558;48.242;11.654;2022-09-19T22:47:57;0.60;;;0.60;;
62509;SDS011;48558;48.242;11.654;2022-09-19T22:52:10;0.90;;;0.65;;
62509;SDS011;48558;48.242;11.654;2022-09-19T22:56:24;0.90;;;0.70;;
62509;SDS011;48558;48.242;11.654;2022-09-19T23:00:39;1.45;;;0.63;;
62509;SDS011;48558;48.242;11.654;2022-09-19T23:04:53;3.03;;;1.00;;
62509;SDS011;48558;48.242;11.654;2022-09-19T23:09:16;0.60;;;0.60;;
62509;SDS011;48558;48.242;11.654;2022-09-19T23:13:34;0.68;;;0.68;;
62509;SDS011;48558;48.242;11.654;2022-09-19T23:18:00;0.63;;;0.63;;
62509;SDS011;48558;48.242;11.654;2022-09-19T23:22:13;1.40;;;0.68;;
62509;SDS011;48558;48.242;11.654;2022-09-19T23:26:26;0.60;;;0.60;;
62509;SDS011;48558;48.242;11.654;2022-09-19T23:30:40;1.55;;;0.75;;
62509;SDS011;48558;48.242;11.654;2022-09-19T23:34:53;1.20;;;0.60;;
62509;SDS011;48558;48.242;11.654;2022-09-19T23:39:08;0.55;;;0.55;;
62509;SDS011;48558;48.242;11.654;2022-09-19T23:43:22;0.70;;;0.70;;
62509;SDS011;48558;48.242;11.654;2022-09-19T23:47:35;0.55;;;0.43;;
62509;SDS011;48558;48.242;11.654;2022-09-19T23:51:51;0.63;;;0.63;;
62509;SDS011;48558;48.242;11.654;2022-09-19T23:56:04;1.10;;;1.00;;
